createdAt,value
2023-11-01T00:01:17.027Z,78.98
2023-11-01T00:09:40.692Z,79.07
2023-11-01T00:18:05.551Z,79.00
2023-11-01T00:26:29.623Z,79.05
2023-11-01T00:34:58.201Z,78.99
2023-11-01T00:43:25.302Z,78.94
2023-11-01T00:51:49.710Z,78.92
2023-11-01T01:00:15.652Z,79.03
2023-11-01T01:08:41.301Z,78.92
2023-11-01T01:17:11.066Z,79.06
2023-11-01T01:25:36.951Z,78.94
2023-11-01T01:34:02.956Z,78.94
2023-11-01T01:42:27.404Z,79.05
2023-11-01T01:50:52.245Z,78.89
2023-11-01T01:59:19.512Z,79.12
2023-11-01T02:07:45.476Z,79.15
2023-11-01T02:16:10.020Z,78.96
2023-11-01T02:24:38.144Z,79.14
2023-11-01T02:33:03.621Z,79.10
2023-11-01T02:41:27.481Z,79.18
2023-11-01T02:49:52.359Z,79.31
2023-11-01T02:58:16.960Z,79.30
2023-11-01T03:06:42.432Z,79.23
2023-11-01T03:15:12.456Z,79.18
2023-11-01T03:23:36.908Z,79.24
2023-11-01T03:32:01.278Z,79.33
2023-11-01T03:40:25.743Z,79.38
2023-11-01T03:48:51.358Z,79.25
2023-11-01T03:57:17.930Z,79.28
2023-11-01T04:05:42.844Z,79.36
2023-11-01T04:14:08.516Z,79.25
2023-11-01T04:22:33.370Z,79.07
2023-11-01T04:30:57.858Z,79.13
2023-11-01T04:39:23.110Z,79.06
2023-11-01T04:47:48.420Z,79.22
2023-11-01T04:56:13.216Z,79.34
2023-11-01T05:04:39.757Z,79.28
2023-11-01T05:13:07.341Z,79.36
2023-11-01T05:21:32.436Z,79.30
2023-11-01T05:29:57.449Z,79.26
2023-11-01T05:38:23.060Z,79.22
2023-11-01T05:46:49.068Z,79.13
2023-11-01T05:55:19.737Z,79.25
2023-11-01T06:03:52.309Z,79.50
2023-11-01T06:12:17.878Z,79.43
2023-11-01T06:20:42.423Z,79.30
2023-11-01T06:29:07.380Z,79.33
2023-11-01T06:37:32.293Z,79.22
2023-11-01T06:46:00.763Z,79.56
2023-11-01T06:54:27.431Z,79.47
2023-11-01T07:02:53.071Z,79.37
2023-11-01T07:11:21.203Z,79.69
2023-11-01T07:19:45.363Z,79.72
2023-11-01T07:28:16.453Z,79.93
2023-11-01T07:36:41.249Z,80.15
2023-11-01T07:45:10.395Z,80.08
2023-11-01T07:53:36.460Z,80.15
2023-11-01T08:02:02.366Z,80.13
2023-11-01T08:10:28.670Z,80.16
2023-11-01T08:18:53.624Z,79.97
2023-11-01T08:27:18.236Z,79.86
2023-11-01T08:35:43.083Z,80.11
2023-11-01T08:44:09.960Z,79.67
2023-11-01T08:52:34.003Z,79.79
2023-11-01T09:01:01.317Z,79.91
2023-11-01T09:09:27.409Z,79.77
2023-11-01T09:17:52.082Z,79.68
2023-11-01T09:26:19.384Z,79.52
2023-11-01T09:34:43.341Z,79.68
2023-11-01T09:43:11.875Z,79.74
2023-11-01T09:51:37.170Z,79.57
2023-11-01T10:00:04.681Z,79.57
2023-11-01T10:08:30.512Z,79.40
2023-11-01T10:16:57.374Z,79.55
2023-11-01T10:25:25.492Z,79.69
2023-11-01T10:33:51.740Z,79.68
2023-11-01T10:42:18.993Z,79.84
2023-11-01T10:50:48.774Z,79.62
2023-11-01T10:59:57.364Z,79.61
2023-11-01T11:08:22.528Z,79.75
2023-11-01T11:17:08.687Z,80.03
2023-11-01T11:25:46.425Z,79.97
2023-11-01T11:34:20.823Z,79.63
2023-11-01T11:42:49.664Z,79.62
2023-11-01T11:51:12.978Z,79.61
2023-11-01T11:59:38.824Z,79.77
2023-11-01T12:08:02.949Z,79.58
2023-11-01T12:16:31.346Z,79.57
2023-11-01T12:24:57.005Z,79.66
2023-11-01T12:33:22.420Z,79.67
2023-11-01T12:41:46.838Z,79.71
2023-11-01T12:50:13.439Z,79.60
2023-11-01T12:58:39.718Z,79.64
2023-11-01T13:07:09.252Z,79.55
2023-11-01T13:15:35.708Z,79.62
2023-11-01T13:23:59.207Z,79.53
2023-11-01T13:32:24.747Z,79.52
2023-11-01T13:40:51.116Z,79.32
2023-11-01T13:49:16.177Z,79.29
2023-11-01T13:57:40.491Z,79.47
2023-11-01T14:06:05.782Z,79.24
2023-11-01T14:14:31.378Z,79.33
2023-11-01T14:22:56.004Z,79.35
2023-11-01T14:31:20.773Z,79.09
2023-11-01T14:39:45.111Z,79.16
2023-11-01T14:48:10.177Z,79.10
2023-11-01T14:56:35.492Z,79.12
2023-11-01T15:05:05.259Z,79.02
2023-11-01T15:13:29.710Z,79.01
2023-11-01T15:21:54.939Z,78.92
2023-11-01T15:30:20.966Z,78.97
2023-11-01T15:38:49.197Z,79.15
2023-11-01T15:47:13.764Z,78.96
2023-11-01T15:55:37.585Z,78.96
2023-11-01T16:04:02.053Z,79.00
2023-11-01T16:12:26.895Z,78.75
2023-11-01T16:20:51.309Z,78.91
2023-11-01T16:29:17.587Z,78.82
2023-11-01T16:37:44.626Z,78.77
2023-11-01T16:46:13.843Z,78.74
2023-11-01T16:54:40.166Z,78.88
2023-11-01T17:03:09.905Z,78.57
2023-11-01T17:11:39.427Z,78.75
2023-11-01T17:20:05.181Z,78.81
2023-11-01T17:28:37.092Z,78.55
2023-11-01T17:37:04.710Z,78.43
2023-11-01T17:45:33.117Z,78.35
2023-11-01T17:53:59.391Z,78.32
2023-11-01T18:03:17.073Z,78.55
2023-11-01T18:11:41.181Z,78.38
2023-11-01T18:20:14.309Z,78.02
2023-11-01T18:28:45.891Z,78.16
2023-11-01T18:37:12.643Z,78.18
2023-11-01T18:45:40.819Z,77.98
2023-11-01T18:54:06.340Z,78.01
2023-11-01T19:02:36.166Z,77.87
2023-11-01T19:10:59.719Z,77.86
2023-11-01T19:19:27.254Z,77.75
2023-11-01T19:27:53.116Z,77.77
2023-11-01T19:36:17.453Z,77.66
2023-11-01T19:44:45.299Z,77.52
2023-11-01T19:53:11.953Z,77.43
2023-11-01T20:01:39.861Z,77.39
2023-11-01T20:10:06.171Z,77.41
2023-11-01T20:18:32.877Z,77.35
2023-11-01T20:27:00.100Z,77.29
2023-11-01T20:35:26.400Z,77.38
2023-11-01T20:43:51.249Z,77.31
2023-11-01T20:52:15.937Z,77.25
2023-11-01T21:00:41.692Z,77.19
2023-11-01T21:09:10.223Z,77.00
2023-11-01T21:17:36.298Z,77.02
2023-11-01T21:26:01.887Z,77.12
2023-11-01T21:34:28.209Z,76.96
2023-11-01T21:42:56.518Z,77.07
2023-11-01T21:51:24.037Z,77.07
2023-11-01T21:59:48.747Z,76.97
2023-11-01T22:08:45.488Z,77.12
2023-11-01T22:17:18.421Z,76.92
2023-11-01T22:25:42.786Z,76.83
2023-11-01T22:34:07.134Z,76.90
2023-11-01T22:42:33.135Z,76.92
2023-11-01T22:51:00.840Z,76.87
2023-11-01T22:59:27.901Z,76.89
2023-11-01T23:08:00.478Z,76.93
2023-11-01T23:16:25.641Z,76.88
2023-11-01T23:24:51.035Z,76.82
2023-11-01T23:33:15.886Z,76.99
2023-11-01T23:42:10.471Z,76.87
2023-11-01T23:50:40.958Z,77.01
2023-11-01T23:59:07.555Z,76.93
